Time;durP1;ratioP1;P1;durP2;ratioP2;P2;SDS_P1;SDS_P2;PMS_P1;PMS_P2;Temp;Humidity;BMP_temperature;BMP_pressure;BME280_temperature;BME280_humidity;BME280_pressure;Samples;Min_cycle;Max_cycle;Signal;HPM_P1;HPM_P2
2022/04/26 03:37:46;;;;;;;6.03;5.33;;;;;;;;;;5079017;28;20433;-71
2022/04/26 03:40:13;;;;;;;7.47;6.23;;;;;;;;;;5083699;28;20529;-70
2022/04/26 03:42:40;;;;;;;11.07;6.03;;;;;;;;;;5084299;28;20444;-70
2022/04/26 03:45:08;;;;;;;9.47;4.97;;;;;;;;;;5080887;28;20452;-71
2022/04/26 03:47:35;;;;;;;5.73;4.90;;;;;;;;;;5084318;28;20477;-70
2022/04/26 03:50:04;;;;;;;8.80;5.63;;;;;;;;;;5080652;28;20953;-70
2022/04/26 03:52:31;;;;;;;5.83;4.83;;;;;;;;;;5080958;28;20533;-70
2022/04/26 03:54:58;;;;;;;9.00;6.40;;;;;;;;;;5089811;28;20483;-70
2022/04/26 03:57:26;;;;;;;6.57;5.30;;;;;;;;;;5091518;28;20460;-70
2022/04/26 03:59:53;;;;;;;7.33;5.03;;;;;;;;;;5092804;28;20460;-70
2022/04/26 04:02:20;;;;;;;6.50;4.83;;;;;;;;;;5091617;28;20538;-70
2022/04/26 04:04:47;;;;;;;8.20;6.20;;;;;;;;;;5092308;28;20473;-70
2022/04/26 04:07:16;;;;;;;6.37;4.93;;;;;;;;;;5078009;28;20448;-72
2022/04/26 04:09:43;;;;;;;10.37;6.80;;;;;;;;;;5071717;28;20476;-72
2022/04/26 04:12:11;;;;;;;7.60;6.07;;;;;;;;;;5079318;28;20477;-73
2022/04/26 04:14:38;;;;;;;5.97;4.70;;;;;;;;;;5081720;28;20480;-73
2022/04/26 04:17:06;;;;;;;6.90;4.80;;;;;;;;;;5087429;28;20530;-73
2022/04/26 04:19:33;;;;;;;8.07;4.40;;;;;;;;;;5082190;28;20445;-72
2022/04/26 04:22:00;;;;;;;7.70;5.63;;;;;;;;;;5091488;28;20475;-74
2022/04/26 04:24:29;;;;;;;6.30;4.97;;;;;;;;;;5080328;28;20949;-73
2022/04/26 04:26:56;;;;;;;9.90;5.40;;;;;;;;;;5076360;28;20441;-71
2022/04/26 04:29:23;;;;;;;6.07;4.33;;;;;;;;;;5091018;28;20448;-72
2022/04/26 04:31:50;;;;;;;7.77;5.60;;;;;;;;;;5091478;28;20524;-74
2022/04/26 04:34:18;;;;;;;6.50;4.67;;;;;;;;;;5091530;28;20525;-76
2022/04/26 04:36:45;;;;;;;6.07;4.70;;;;;;;;;;5091063;28;20532;-74
2022/04/26 04:39:19;;;;;;;6.07;4.23;;;;;;;;;;5090785;28;20498;-71
2022/04/26 04:41:47;;;;;;;6.90;5.10;;;;;;;;;;5091473;28;20460;-72
2022/04/26 04:44:14;;;;;;;7.23;4.63;;;;;;;;;;5091583;28;20451;-73
2022/04/26 04:46:41;;;;;;;5.80;3.67;;;;;;;;;;5089774;28;20915;-72
2022/04/26 04:49:08;;;;;;;5.60;4.03;;;;;;;;;;5091453;28;20596;-71
2022/04/26 04:51:36;;;;;;;5.07;3.70;;;;;;;;;;5090910;28;20459;-71
2022/04/26 04:54:04;;;;;;;6.73;4.43;;;;;;;;;;5091517;28;20567;-72
2022/04/26 04:56:31;;;;;;;7.07;5.43;;;;;;;;;;5090098;28;20797;-72
2022/04/26 04:58:59;;;;;;;6.87;5.30;;;;;;;;;;5091051;28;20471;-71
2022/04/26 05:01:26;;;;;;;6.20;3.80;;;;;;;;;;5090785;28;20436;-71
2022/04/26 05:03:54;;;;;;;5.90;5.30;;;;;;;;;;5091052;28;20441;-71
2022/04/26 05:06:21;;;;;;;6.60;5.10;;;;;;;;;;5090484;28;20447;-71
2022/04/26 05:08:48;;;;;;;6.00;5.00;;;;;;;;;;5091139;28;20568;-71
2022/04/26 05:11:15;;;;;;;7.23;5.27;;;;;;;;;;5090953;28;20523;-71
2022/04/26 05:13:42;;;;;;;6.50;4.40;;;;;;;;;;5089950;28;20487;-71
2022/04/26 05:16:11;;;;;;;5.10;4.43;;;;;;;;;;5090513;28;20441;-72
2022/04/26 05:18:38;;;;;;;6.50;3.60;;;;;;;;;;5089953;28;20855;-72
2022/04/26 05:21:08;;;;;;;7.40;5.20;;;;;;;;;;5090914;28;20445;-71
2022/04/26 05:26:20;;;;;;;6.93;4.87;;;;;;;;;;5090308;28;20556;-73
2022/04/26 05:28:47;;;;;;;6.53;3.90;;;;;;;;;;5090888;28;20506;-72
2022/04/26 05:31:16;;;;;;;6.87;4.93;;;;;;;;;;5090831;28;20444;-71
2022/04/26 05:33:43;;;;;;;6.73;5.17;;;;;;;;;;5089913;28;20498;-72
2022/04/26 05:36:10;;;;;;;6.33;4.40;;;;;;;;;;5090236;28;20532;-72
2022/04/26 05:38:38;;;;;;;6.03;4.70;;;;;;;;;;5089801;28;20441;-71
2022/04/26 05:41:05;;;;;;;7.10;4.90;;;;;;;;;;5090309;28;20440;-71
2022/04/26 05:43:33;;;;;;;5.47;4.60;;;;;;;;;;5090009;28;20468;-72
2022/04/26 05:46:00;;;;;;;6.13;3.77;;;;;;;;;;5090013;28;20841;-71
2022/04/26 05:48:29;;;;;;;7.00;4.70;;;;;;;;;;5089955;28;20432;-71
2022/04/26 05:50:57;;;;;;;6.80;5.17;;;;;;;;;;5087363;28;20466;-71
2022/04/26 05:53:24;;;;;;;5.77;4.77;;;;;;;;;;5079736;28;20540;-71
2022/04/26 05:55:51;;;;;;;4.43;3.87;;;;;;;;;;5090020;28;20483;-71
2022/04/26 05:58:20;;;;;;;5.37;4.10;;;;;;;;;;5090538;28;20824;-71
2022/04/26 06:00:47;;;;;;;5.83;3.60;;;;;;;;;;5089838;28;20535;-71
2022/04/26 06:03:14;;;;;;;4.80;3.80;;;;;;;;;;5090263;28;20458;-71
2022/04/26 06:05:43;;;;;;;5.50;3.93;;;;;;;;;;5089267;28;20578;-72
2022/04/26 06:08:10;;;;;;;8.80;3.50;;;;;;;;;;5090050;28;20440;-71
2022/04/26 06:10:39;;;;;;;6.53;4.57;;;;;;;;;;5070840;28;20450;-72
2022/04/26 06:13:08;;;;;;;7.47;4.93;;;;;;;;;;5082470;28;20437;-72
2022/04/26 06:15:35;;;;;;;7.33;4.70;;;;;;;;;;5089297;28;20825;-72
2022/04/26 06:18:02;;;;;;;5.97;3.60;;;;;;;;;;5090108;28;20452;-72
2022/04/26 06:20:29;;;;;;;4.83;4.33;;;;;;;;;;5089033;28;20480;-71
2022/04/26 06:22:58;;;;;;;8.23;5.50;;;;;;;;;;5090364;28;20526;-71
2022/04/26 06:25:25;;;;;;;6.57;4.53;;;;;;;;;;5089594;28;20472;-71
2022/04/26 06:27:52;;;;;;;8.20;5.43;;;;;;;;;;5089624;28;20539;-71
2022/04/26 06:30:19;;;;;;;4.97;4.17;;;18.10;99.90;;;;;;5090329;28;20443;-71
2022/04/26 06:32:46;;;;;;;5.37;4.23;;;11.30;99.90;;;;;;5089486;28;20502;-71
2022/04/26 06:35:13;;;;;;;4.80;3.87;;;11.10;99.90;;;;;;5090273;28;20472;-71
2022/04/26 06:37:40;;;;;;;7.33;5.07;;;11.10;99.90;;;;;;5088835;28;20445;-72
2022/04/26 06:40:09;;;;;;;4.53;4.13;;;11.10;99.90;;;;;;5090360;28;20528;-71
2022/04/26 06:42:36;;;;;;;5.30;4.27;;;11.00;99.90;;;;;;5089286;28;20444;-71
2022/04/26 06:45:02;;;;;;;5.73;3.87;;;11.10;99.90;;;;;;5090149;28;20449;-72
2022/04/26 06:47:29;;;;;;;4.50;3.60;;;11.20;99.90;;;;;;5088645;28;20533;-71
2022/04/26 06:49:56;;;;;;;5.47;4.70;;;11.20;99.90;;;;;;5090214;28;21005;-71
2022/04/26 06:52:23;;;;;;;6.57;4.50;;;11.10;99.90;;;;;;5088812;28;20437;-72
2022/04/26 06:54:50;;;;;;;6.27;5.50;;;11.20;99.90;;;;;;5089839;28;20473;-71
2022/04/26 06:57:18;;;;;;;5.57;4.37;;;;;;;;;;5089400;28;20451;-71
2022/04/26 06:59:45;;;;;;;7.00;4.40;;;10.90;99.90;;;;;;5089612;28;20557;-71
2022/04/26 07:02:12;;;;;;;5.10;3.83;;;11.40;99.90;;;;;;5089895;28;20521;-71
2022/04/26 07:04:39;;;;;;;6.70;3.97;;;11.30;99.90;;;;;;5092653;28;20443;-71
2022/04/26 07:07:06;;;;;;;5.00;3.67;;;11.30;99.90;;;;;;5092853;28;20442;-71
2022/04/26 07:09:38;;;;;;;6.07;5.00;;;11.20;99.90;;;;;;5092702;28;20529;-71
2022/04/26 07:12:07;;;;;;;4.57;3.50;;;11.40;99.90;;;;;;5093257;28;20447;-72
2022/04/26 07:14:36;;;;;;;6.50;4.10;;;11.40;99.90;;;;;;5092757;28;20572;-71
2022/04/26 07:17:04;;;;;;;4.73;3.80;;;11.50;99.90;;;;;;5092777;28;20948;-71
2022/04/26 07:19:31;;;;;;;5.10;3.80;;;11.60;99.90;;;;;;5092355;28;20446;-71
2022/04/26 07:21:57;;;;;;;6.27;4.23;;;11.60;99.90;;;;;;5093225;28;20821;-71
2022/04/26 07:24:24;;;;;;;5.00;3.93;;;11.60;99.90;;;;;;5081416;28;20502;-71
2022/04/26 07:26:54;;;;;;;3.50;2.97;;;11.70;99.90;;;;;;5090672;28;20927;-71
2022/04/26 07:29:21;;;;;;;5.00;3.33;;;11.70;99.90;;;;;;5092308;28;20442;-71
2022/04/26 07:31:49;;;;;;;3.77;3.27;;;;;;;;;;5092995;28;20444;-70
2022/04/26 07:34:22;;;;;;;5.57;3.50;;;;;;;;;;5093101;28;20766;-71
2022/04/26 07:36:51;;;;;;;5.10;3.40;;;;;;;;;;5092705;28;20484;-71
2022/04/26 07:39:18;;;;;;;3.80;3.13;;;;;;;;;;5093090;28;20802;-70
2022/04/26 07:41:46;;;;;;;4.67;2.53;;;;;;;;;;5078502;28;20452;-71
2022/04/26 07:44:14;;;;;;;3.17;2.87;;;;;;;;;;5092466;28;20454;-70
2022/04/26 07:46:41;;;;;;;4.00;3.30;;;;;;;;;;5092075;28;20440;-71
2022/04/26 07:49:09;;;;;;;4.13;3.40;;;;;;;;;;5078692;28;20839;-71
2022/04/26 07:51:37;;;;;;;4.33;2.63;;;;;;;;;;5081160;28;20528;-71
2022/04/26 07:54:04;;;;;;;3.73;3.10;;;;;;;;;;5092459;28;20455;-71
2022/04/26 07:56:32;;;;;;;3.90;3.00;;;;;;;;;;5082257;28;20543;-71
2022/04/26 07:59:01;;;;;;;4.30;3.13;;;;;;;;;;5079118;28;20808;-71
2022/04/26 08:01:29;;;;;;;3.60;2.23;;;;;;;;;;5092310;28;20436;-71
2022/04/26 08:03:56;;;;;;;4.40;3.20;;;;;;;;;;5092964;28;20444;-71
2022/04/26 08:06:25;;;;;;;3.40;2.40;;;;;;;;;;5091776;28;20459;-71
2022/04/26 08:08:53;;;;;;;5.47;2.90;;;;;;;;;;5092395;28;20927;-71
2022/04/26 08:11:21;;;;;;;3.90;2.83;;;;;;;;;;5092170;28;20436;-71
2022/04/26 08:13:48;;;;;;;3.57;2.63;;;;;;;;;;5091366;28;20507;-71
2022/04/26 08:16:15;;;;;;;3.90;3.30;;;;;;;;;;5091871;28;20997;-71
2022/04/26 08:18:42;;;;;;;4.43;2.60;;;;;;;;;;5091282;28;21058;-71
2022/04/26 08:21:13;;;;;;;3.60;2.70;;;;;;;;;;5092472;28;20451;-72
2022/04/26 08:29:08;;;;;;;2.97;2.23;;;;;;;;;;5091571;28;21009;-71
2022/04/26 08:31:37;;;;;;;4.50;3.97;;;;;;;;;;5091321;28;20470;-71
2022/04/26 08:34:05;;;;;;;3.10;2.60;;;;;;;;;;5091717;28;20446;-71
2022/04/26 08:36:32;;;;;;;3.90;3.13;;;;;;;;;;5091065;28;20489;-71
2022/04/26 08:39:01;;;;;;;3.77;3.27;;;;;;;;;;5091940;28;20493;-71
2022/04/26 08:41:29;;;;;;;4.00;2.80;;;;;;;;;;5090826;28;20988;-71
2022/04/26 08:43:56;;;;;;;2.23;2.03;;;;;;;;;;5091441;28;20438;-71
2022/04/26 08:50:59;;;;;;;3.77;2.60;;;;;;;;;;5090740;28;20444;-72
2022/04/26 08:52:00;;;;;;;3.97;3.47;;;;;;;;;;5091500;28;20440;-71
2022/04/26 08:54:30;;;;;;;4.37;2.80;;;;;;;;;;5090134;28;20429;-71
2022/04/26 08:56:57;;;;;;;3.70;2.70;;;;;;;;;;5091355;28;20555;-71
2022/04/26 08:59:25;;;;;;;3.60;2.70;;;;;;;;;;5090262;28;20560;-71
2022/04/26 09:01:52;;;;;;;4.70;3.20;;;;;;;;;;5091604;28;20544;-71
2022/04/26 09:04:19;;;;;;;5.97;2.93;;;;;;;;;;5091376;28;20494;-71
2022/04/26 09:06:47;;;;;;;4.20;3.80;;;;;;;;;;5090446;28;20448;-71
2022/04/26 09:09:15;;;;;;;3.40;2.80;;;;;;;;;;5077877;28;20433;-72
2022/04/26 09:11:44;;;;;;;4.17;2.87;;;;;;;;;;5090616;28;20520;-71
2022/04/26 09:14:29;;;;;;;4.77;2.63;;;;;;;;;;5091410;28;20786;-72
2022/04/26 09:17:04;;;;;;;3.03;2.73;;;;;;;;;;5090749;28;20528;-71
2022/04/26 09:19:43;;;;;;;3.37;2.60;;;;;;;;;;5090178;28;20444;-71
2022/04/26 09:22:16;;;;;;;2.60;2.40;;;;;;;;;;5091186;28;20490;-71
2022/04/26 09:24:56;;;;;;;4.60;2.57;;;;;;;;;;5090088;28;20436;-71
2022/04/26 09:27:25;;;;;;;2.57;2.37;;;;;;;;;;5089758;28;20482;-71
2022/04/26 09:29:52;;;;;;;2.73;2.20;;;;;;;;;;5090671;28;20550;-71
2022/04/26 09:32:20;;;;;;;3.93;3.20;;;;;;;;;;5090785;28;20450;-71
2022/04/26 09:34:47;;;;;;;2.63;2.40;;;;;;;;;;5090054;28;20749;-71
2022/04/26 09:37:16;;;;;;;3.77;3.20;;;;;;;;;;5090266;28;20444;-71
2022/04/26 09:40:00;;;;;;;2.63;2.30;;;;;;;;;;5089947;28;20524;-71
2022/04/26 09:42:32;;;;;;;3.90;2.83;;;;;;;;;;5090280;28;20778;-71
2022/04/26 09:45:04;;;;;;;2.60;2.10;;;;;;;;;;5077764;28;20448;-71
2022/04/26 09:47:36;;;;;;;2.77;2.27;;;;;;;;;;5089759;28;20440;-71
2022/04/26 09:50:06;;;;;;;4.73;3.20;;;;;;;;;;5090670;28;20443;-71
2022/04/26 09:52:33;;;;;;;2.50;1.97;;;;;;;;;;5090407;28;20441;-71
2022/04/26 09:55:01;;;;;;;3.20;2.70;;;;;;;;;;5090643;28;20516;-71
2022/04/26 09:57:30;;;;;;;3.60;2.60;;;;;;;;;;5089604;28;20448;-71
2022/04/26 09:59:59;;;;;;;3.03;2.70;;;;;;;;;;5090331;28;20491;-70
2022/04/26 10:02:29;;;;;;;2.20;1.73;;;;;;;;;;5089750;28;20793;-70
2022/04/26 10:04:58;;;;;;;3.83;2.10;;;;;;;;;;5090457;28;20447;-70
2022/04/26 10:07:27;;;;;;;4.13;2.30;;;;;;;;;;5089108;28;20437;-70
2022/04/26 10:09:55;;;;;;;1.80;1.70;;;;;;;;;;5090887;28;20440;-71
2022/04/26 10:12:22;;;;;;;3.20;2.50;;;;;;;;;;5089799;28;20948;-70
2022/04/26 10:14:50;;;;;;;3.80;2.30;;;;;;;;;;5089990;28;20441;-72
2022/04/26 10:17:21;;;;;;;2.77;2.20;;;;;;;;;;5076545;28;20999;-70
2022/04/26 10:19:48;;;;;;;2.60;2.00;;;;;;;;;;5090171;28;20440;-71
2022/04/26 10:22:17;;;;;;;2.33;1.87;;;;;;;;;;5090537;28;20502;-70
2022/04/26 10:24:59;;;;;;;2.60;2.40;;;;;;;;;;5089334;28;20501;-70
2022/04/26 10:27:27;;;;;;;2.60;2.40;;;;;;;;;;5089113;28;20454;-70
2022/04/26 10:29:54;;;;;;;2.27;1.83;;;;;;;;;;5090282;28;20514;-71
2022/04/26 10:32:34;;;;;;;3.10;2.73;;;;;;;;;;5090114;28;20494;-71
2022/04/26 10:35:20;;;;;;;1.40;1.30;;;;;;;;;;5090299;28;20428;-71
2022/04/26 10:38:07;;;;;;;2.60;2.03;;;;;;;;;;5090256;28;20502;-71
2022/04/26 10:41:07;;;;;;;3.33;2.37;;;;;;;;;;5093260;28;20494;-71
2022/04/26 10:43:34;;;;;;;2.40;2.20;;;;;;;;;;5082317;28;20439;-70
2022/04/26 10:46:11;;;;;;;2.37;2.00;;;;;;;;;;5093553;28;20477;-71
2022/04/26 10:48:40;;;;;;;3.87;2.00;;;;;;;;;;5093345;28;20857;-71
2022/04/26 10:51:26;;;;;;;2.67;2.43;;;;;;;;;;5093712;28;20919;-70
2022/04/26 10:53:53;;;;;;;5.20;2.50;;;;;;;;;;5093803;28;20511;-72
2022/04/26 10:56:20;;;;;;;1.60;1.50;;;;;;;;;;5093092;28;20490;-71
2022/04/26 10:58:51;;;;;;;2.13;1.50;;;;;;;;;;5092675;28;20537;-71
2022/04/26 11:01:19;;;;;;;2.20;1.83;;;;;;;;;;5093978;28;20436;-72
2022/04/26 11:03:55;;;;;;;3.97;2.07;;;;;;;;;;5093033;28;20444;-71
2022/04/26 11:06:36;;;;;;;1.50;1.40;;;;;;;;;;5093341;28;20779;-71
2022/04/26 11:09:08;;;;;;;1.77;1.63;;;;;;;;;;5093718;28;20550;-72
2022/04/26 11:11:47;;;;;;;2.00;1.90;;;;;;;;;;5092874;28;20444;-71
2022/04/26 11:14:15;;;;;;;2.70;1.50;;;;;;;;;;5081262;28;20437;-70
2022/04/26 11:16:55;;;;;;;2.17;1.90;;;;;;;;;;5092470;28;21178;-71
2022/04/26 11:19:29;;;;;;;2.37;1.77;;;;;;;;;;5093192;28;20755;-71
2022/04/26 11:21:57;;;;;;;1.40;1.27;;;;;;;;;;5093622;28;20436;-71
2022/04/26 11:29:54;;;;;;;3.60;3.13;;;;;;;;;;5093102;28;20772;-71
2022/04/26 11:32:31;;;;;;;4.83;3.43;;;;;;;;;;5092984;28;20441;-70
2022/04/26 11:35:00;;;;;;;5.23;3.57;;;;;;;;;;5092760;28;20532;-70
2022/04/26 11:37:27;;;;;;;5.33;3.00;;;;;;;;;;5091955;28;20480;-71
2022/04/26 11:39:54;;;;;;;4.40;3.20;;;;;;;;;;5092873;28;20441;-72
2022/04/26 11:42:22;;;;;;;3.50;3.20;;;;;;;;;;5093111;28;20542;-71
2022/04/26 11:45:02;;;;;;;3.30;3.00;;;;;;;;;;5092050;28;20492;-71
2022/04/26 11:47:39;;;;;;;3.57;2.73;;;;;;;;;;5092149;28;20458;-72
2022/04/26 11:50:15;;;;;;;3.60;2.87;;;;;;;;;;5092716;28;20479;-71
2022/04/26 11:52:44;;;;;;;4.17;2.83;;;;;;;;;;5092183;28;20657;-71
2022/04/26 11:55:19;;;;;;;4.37;3.40;;;;;;;;;;5092081;28;20440;-72
2022/04/26 11:57:47;;;;;;;3.57;2.47;;;;;;;;;;5091582;28;20563;-71
2022/04/26 12:00:14;;;;;;;3.43;2.50;;;;;;;;;;5092557;28;20429;-71
2022/04/26 12:02:42;;;;;;;3.07;2.40;;;;;;;;;;5091389;28;20523;-72
2022/04/26 12:05:10;;;;;;;3.70;2.40;;;;;;;;;;5092113;28;20472;-71
2022/04/26 12:07:38;;;;;;;3.40;1.90;;;;;;;;;;5077910;28;20437;-71
2022/04/26 12:10:25;;;;;;;3.33;2.93;;;;;;;;;;5091796;28;20460;-71
2022/04/26 12:12:56;;;;;;;2.50;2.30;;;;;;;;;;5092364;28;20437;-71
2022/04/26 12:15:25;;;;;;;2.40;2.17;;;;;;;;;;5091712;28;20448;-71
2022/04/26 12:18:03;;;;;;;4.43;3.10;;;;;;;;;;5092158;28;20441;-71
2022/04/26 12:20:30;;;;;;;6.70;3.07;;;;;;;;;;5091157;28;20440;-71
2022/04/26 12:22:59;;;;;;;2.67;2.30;;;;;;;;;;5092216;28;20480;-70
2022/04/26 12:25:26;;;;;;;3.20;2.40;;;;;;;;;;5091164;28;20494;-71
2022/04/26 12:28:02;;;;;;;3.60;2.10;;;;;;;;;;5092028;28;20539;-71
2022/04/26 12:30:30;;;;;;;2.30;1.90;;;;;;;;;;5090816;28;20930;-71
2022/04/26 12:32:57;;;;;;;2.80;2.47;;;;;;;;;;5092109;28;20445;-71
2022/04/26 12:35:25;;;;;;;3.00;2.67;;;;;;;;;;5091512;28;20444;-71
2022/04/26 12:38:05;;;;;;;3.30;2.53;;;;;;;;;;5091699;28;20480;-71
2022/04/26 12:40:32;;;;;;;4.27;2.97;;;;;;;;;;5091249;28;20514;-71
2022/04/26 12:42:59;;;;;;;3.27;2.30;;;;;;;;;;5091725;28;20436;-71
2022/04/26 12:45:27;;;;;;;2.60;2.00;;;;;;;;;;5090466;28;20483;-71
2022/04/26 12:50:52;;;;;;;2.03;1.47;;;;;;;;;;5091609;28;20492;-72
2022/04/26 12:53:25;;;;;;;2.60;1.60;;;;;;;;;;5091736;28;20456;-73
2022/04/26 12:55:53;;;;;;;3.40;2.97;;;;;;;;;;5084663;28;20512;-73
2022/04/26 12:58:21;;;;;;;2.03;1.77;;;;;;;;;;5081759;28;20483;-72
2022/04/26 13:00:50;;;;;;;1.97;1.63;;;;;;;;;;5089947;28;20510;-72
2022/04/26 13:03:18;;;;;;;1.90;1.40;;;;;;;;;;5091724;28;20443;-71
2022/04/26 13:05:45;;;;;;;2.53;1.00;;;;;;;;;;5090027;28;20447;-72
2022/04/26 13:08:13;;;;;;;2.57;2.00;;;;;;;;;;5090661;28;20479;-72
2022/04/26 13:10:42;;;;;;;2.07;1.87;;;;;;;;;;5090930;28;20432;-72
2022/04/26 13:13:09;;;;;;;1.80;1.57;;;;;;;;;;5091571;28;20860;-73
2022/04/26 13:15:37;;;;;;;1.87;1.33;;;;;;;;;;5089788;28;20475;-72
2022/04/26 13:18:04;;;;;;;2.13;1.93;;;;;;;;;;5091302;28;20563;-73
2022/04/26 13:20:33;;;;;;;1.50;1.20;;;;;;;;;;5077316;28;20472;-72
2022/04/26 13:23:00;;;;;;;1.63;1.53;;;;;;;;;;5091193;28;20438;-72
2022/04/26 13:25:27;;;;;;;2.60;1.70;;;;;;;;;;5090261;28;20440;-72
2022/04/26 13:27:56;;;;;;;1.90;1.70;;;;;;;;;;5091382;28;20452;-73
2022/04/26 13:30:24;;;;;;;2.10;1.70;;;;;;;;;;5090887;28;20882;-72
2022/04/26 13:32:52;;;;;;;2.00;1.53;;;;;;;;;;5090748;28;20843;-72
2022/04/26 13:35:19;;;;;;;1.97;1.30;;;;;;;;;;5090489;28;20451;-73
2022/04/26 13:37:46;;;;;;;1.10;1.00;;;;;;;;;;5090006;28;20550;-73
2022/04/26 13:40:14;;;;;;;1.90;1.60;;;;;;;;;;5090805;28;20472;-72
2022/04/26 13:42:41;;;;;;;1.80;1.50;;;;;;;;;;5090339;28;20440;-72
2022/04/26 13:45:10;;;;;;;2.17;1.97;;;;;;;;;;5090473;28;20443;-73
2022/04/26 13:47:38;;;;;;;1.50;1.40;;;;;;;;;;5090183;28;20519;-72
2022/04/26 13:50:06;;;;;;;1.47;1.10;;;;;;;;;;5091007;28;20448;-71
2022/04/26 13:52:33;;;;;;;1.70;1.47;;;;;;;;;;5090107;28;20449;-73
2022/04/26 13:55:02;;;;;;;2.40;1.77;;;;;;;;;;5090303;28;20528;-72
2022/04/26 13:57:29;;;;;;;1.07;0.87;;;;;;;;;;5089614;28;20577;-72
2022/04/26 13:59:56;;;;;;;1.37;1.20;;;;;;;;;;5090731;28;20465;-73
2022/04/26 14:02:25;;;;;;;2.30;1.30;;;;;;;;;;5090543;28;20440;-71
2022/04/26 14:04:53;;;;;;;1.33;1.10;;;;;;;;;;5090269;28;20505;-72
2022/04/26 14:07:20;;;;;;;0.90;0.70;;;;;;;;;;5090457;28;20444;-72
2022/04/26 14:09:47;;;;;;;1.47;1.00;;;;;;;;;;5090159;28;20467;-72
2022/04/26 14:12:18;;;;;;;1.50;1.03;;;;;;;;;;5092110;28;20436;-72
2022/04/26 14:23:00;;;;;;;1.93;1.13;;;;;;;;;;5094687;28;20881;-71
2022/04/26 14:25:28;;;;;;;2.70;1.20;;;;;;;;;;5093986;28;20523;-71
2022/04/26 14:27:55;;;;;;;1.50;1.20;;;;;;;;;;5094788;28;20450;-71
2022/04/26 14:30:22;;;;;;;1.30;1.10;;;;;;;;;;5094363;28;20447;-71
2022/04/26 14:32:50;;;;;;;2.17;1.30;;;;;;;;;;5094060;28;20472;-71
2022/04/26 14:35:18;;;;;;;1.20;1.07;;;;;;;;;;5093868;28;21097;-71
2022/04/26 14:37:45;;;;;;;2.50;1.57;;;;;;;;;;5093936;28;20553;-71
2022/04/26 14:40:13;;;;;;;1.47;1.13;;;;;;;;;;5094626;28;20468;-71
2022/04/26 14:42:45;;;;;;;2.60;1.20;;;;;;;;;;5093865;28;20447;-71
2022/04/26 14:45:12;;;;;;;1.87;1.17;;;;;;;;;;5093923;28;20764;-71
2022/04/26 14:47:40;;;;;;;2.57;1.47;;;;;;;;;;5093658;28;20528;-71
2022/04/26 14:50:09;;;;;;;2.23;1.83;;;;;;;;;;5094592;28;20440;-71
2022/04/26 14:52:37;;;;;;;1.47;1.13;;;;;;;;;;5093205;28;20513;-72
2022/04/26 14:55:05;;;;;;;1.53;1.17;;;;;;;;;;5093838;28;20437;-71
2022/04/26 14:57:32;;;;;;;2.37;1.37;;;;;;;;;;5093229;28;20582;-72
2022/04/26 15:00:00;;;;;;;1.33;1.23;;;;;;;;;;5093537;28;20472;-72
2022/04/26 15:02:36;;;;;;;1.70;1.60;;;;;;;;;;5093694;28;20456;-72
2022/04/26 15:05:04;;;;;;;2.17;1.53;;;;;;;;;;5093989;28;20478;-71
2022/04/26 15:09:42;;;;;;;2.57;1.40;;;;;;;;;;5093311;28;20441;-72
2022/04/26 15:10:18;;;;;;;1.50;1.40;;;;;;;;;;5093606;28;20444;-71
2022/04/26 15:18:15;;;;;;;1.50;1.40;;;;;;;;;;5093678;28;20854;-71
2022/04/26 15:20:42;;;;;;;1.73;1.50;;;;;;;;;;5092814;28;20448;-71
2022/04/26 15:23:11;;;;;;;1.87;1.40;;;;;;;;;;5093003;28;20995;-71
2022/04/26 15:25:40;;;;;;;2.30;1.50;;;;;;;;;;5092187;28;20520;-71
2022/04/26 15:28:08;;;;;;;1.80;1.30;;;;;;;;;;5093721;28;21028;-71
2022/04/26 15:30:42;;;;;;;1.40;1.27;;;;;;;;;;5092692;28;20917;-71
2022/04/26 15:33:09;;;;;;;1.67;1.53;;;;;;;;;;5093542;28;20437;-71
2022/04/26 15:35:36;;;;;;;2.80;1.77;;;;;;;;;;5092343;28;20485;-71
2022/04/26 15:38:04;;;;;;;2.20;1.63;;;;;;;;;;5093177;28;20500;-71
2022/04/26 15:40:34;;;;;;;1.83;1.73;;;;;;;;;;5092862;28;20436;-71
2022/04/26 15:43:01;;;;;;;1.97;1.77;;;;;;;;;;5093620;28;20432;-70
2022/04/26 15:45:28;;;;;;;2.20;1.97;;;;;;;;;;5092580;28;20793;-72
2022/04/26 15:47:55;;;;;;;1.00;0.93;;;;;;;;;;5093411;28;20527;-70
2022/04/26 15:50:22;;;;;;;6.20;1.97;;;;;;;;;;5093386;28;20448;-71
2022/04/26 15:52:50;;;;;;;1.20;1.10;;;;;;;;;;5092208;28;20440;-73
2022/04/26 15:55:17;;;;;;;1.07;0.87;;;;;;;;;;5092771;28;20478;-72
2022/04/26 15:57:47;;;;;;;3.10;1.93;;;;;;;;;;5078778;28;20504;-72
2022/04/26 16:00:16;;;;;;;1.53;1.43;;;;;;;;;;5092942;28;20436;-72
2022/04/26 16:02:44;;;;;;;1.27;1.17;;;;;;;;;;5092462;28;20452;-72
2022/04/26 16:05:12;;;;;;;1.57;1.30;;;;;;;;;;5092541;28;20929;-72
2022/04/26 16:07:39;;;;;;;2.70;1.17;;;;;;;;;;5078887;28;20445;-71
2022/04/26 16:21:08;;;;;;;1.57;1.10;;;;;;;;;;5092880;28;20772;-72
2022/04/26 16:23:36;;;;;;;1.20;1.10;;;;;;;;;;5091925;28;20444;-72
2022/04/26 16:26:06;;;;;;;1.53;1.10;;;;;;;;;;5092118;28;20437;-72
2022/04/26 16:28:35;;;;;;;1.40;1.17;;;;;;;;;;5091477;28;20506;-71
2022/04/26 16:31:03;;;;;;;2.10;1.50;;;;;;;;;;5092287;28;20449;-72
2022/04/26 16:33:30;;;;;;;1.30;1.10;;;;;;;;;;5092047;28;20452;-71
2022/04/26 16:35:58;;;;;;;1.00;0.90;;;;;;;;;;5091592;28;20452;-71
2022/04/26 16:38:25;;;;;;;1.33;1.23;;;;;;;;;;5078794;28;20480;-71
2022/04/26 16:40:52;;;;;;;1.83;1.33;;;;;;;;;;5091487;28;20441;-72
2022/04/26 16:43:20;;;;;;;1.80;1.10;;;;;;;;;;5091949;28;20445;-71
2022/04/26 16:45:49;;;;;;;1.20;1.10;;;;;;;;;;5091158;28;20451;-71
2022/04/26 16:48:17;;;;;;;3.03;1.47;;;;;;;;;;5092190;28;20449;-71
2022/04/26 16:50:44;;;;;;;3.00;1.50;;;;;;;;;;5091319;28;20535;-72
2022/04/26 16:53:11;;;;;;;2.10;1.63;;;;;;;;;;5092006;28;20443;-71
2022/04/26 16:55:38;;;;;;;1.67;1.10;;;;;;;;;;5090667;28;20930;-71
2022/04/26 16:58:06;;;;;;;1.63;1.23;;;;;;;;;;5091887;28;20528;-72
2022/04/26 17:00:34;;;;;;;1.30;1.03;;;;;;;;;;5090832;28;20480;-71
2022/04/26 17:03:04;;;;;;;1.30;1.20;;;;;;;;;;5092115;28;20777;-70
2022/04/26 17:05:31;;;;;;;1.10;1.00;;;;;;;;;;5090955;28;20447;-71
2022/04/26 17:07:58;;;;;;;1.30;1.03;;;;;;;;;;5092282;28;20441;-71
2022/04/26 17:10:26;;;;;;;0.97;0.93;;;;;;;;;;5092068;28;20524;-71
2022/04/26 17:12:53;;;;;;;1.10;0.90;;;;;;;;;;5091670;28;20920;-71
2022/04/26 17:15:21;;;;;;;2.33;1.60;;;;;;;;;;5091416;28;20440;-71
2022/04/26 17:17:49;;;;;;;1.10;1.00;;;;;;;;;;5091126;28;20797;-71
2022/04/26 17:20:18;;;;;;;1.53;1.00;;;;;;;;;;5091878;28;20526;-70
2022/04/26 17:22:45;;;;;;;1.10;0.70;;;;;;;;;;5091504;28;20513;-71
2022/04/26 17:25:16;;;;;;;1.37;0.83;;;;;;;;;;5091421;28;20443;-71
2022/04/26 17:27:43;;;;;;;1.20;0.90;;;;;;;;;;5090903;28;20452;-72
2022/04/26 17:30:12;;;;;;;1.10;0.87;;;;;;;;;;5085591;28;20487;-71
2022/04/26 17:32:39;;;;;;;1.20;1.10;;;;;;;;;;5083578;28;20512;-72
2022/04/26 17:35:07;;;;;;;1.40;1.03;;;;;;;;;;5091081;28;20526;-70
2022/04/26 17:37:35;;;;;;;0.83;0.83;;;;;;;;;;5090870;28;20619;-70
2022/04/26 17:40:03;;;;;;;1.23;1.03;;;;;;;;;;5091131;28;20441;-71
2022/04/26 17:42:34;;;;;;;1.33;1.23;;;;;;;;;;5091163;28;20444;-72
2022/04/26 17:45:01;;;;;;;1.23;1.13;;;;;;;;;;5072917;28;20473;-76
2022/04/26 17:47:29;;;;;;;0.80;0.70;;;;;;;;;;5088144;28;20509;-72
2022/04/26 17:49:58;;;;;;;2.23;1.63;;;;;;;;;;5089327;28;20443;-71
2022/04/26 17:52:25;;;;;;;1.07;0.97;;;;;;;;;;5079584;28;20519;-72
2022/04/26 17:57:39;;;;;;;1.30;1.20;;;;;;;;;;5073729;28;20488;-72
2022/04/26 18:00:09;;;;;;;2.70;1.20;;;;;;;;;;5079931;28;20529;-71
2022/04/26 18:02:36;;;;;;;2.40;1.40;;;;;;;;;;5081983;28;20460;-72
2022/04/26 18:05:03;;;;;;;2.20;1.63;;;;;;;;;;5080366;28;20457;-72
2022/04/26 18:07:31;;;;;;;1.47;0.97;;;;;;;;;;5089053;28;20454;-71
2022/04/26 18:09:59;;;;;;;1.57;0.70;;;;;;;;;;5078466;28;20954;-72
2022/04/26 18:12:27;;;;;;;2.40;1.20;;;;;;;;;;5076060;28;20535;-72
2022/04/26 18:14:54;;;;;;;1.20;1.10;;;;;;;;;;5079107;28;20463;-72
2022/04/26 18:17:22;;;;;;;0.90;0.77;;;;;;;;;;5074614;28;20463;-72
2022/04/26 18:19:50;;;;;;;1.40;0.83;;;;;;;;;;5081301;28;20458;-72
2022/04/26 18:22:17;;;;;;;1.30;1.17;;;;;;;;;;5081840;28;20452;-73
2022/04/26 18:24:45;;;;;;;1.10;1.00;;;;;;;;;;5069336;28;20486;-72
2022/04/26 18:27:13;;;;;;;1.37;1.27;;;;;;;;;;5089178;28;20801;-72
2022/04/26 18:29:40;;;;;;;1.43;1.23;;;;;;;;;;5081884;28;20474;-73
2022/04/26 18:32:08;;;;;;;1.40;1.30;;;;;;;;;;5076052;28;20470;-72
2022/04/26 18:34:35;;;;;;;1.00;0.90;;;;;;;;;;5074304;28;20452;-71
2022/04/26 18:37:03;;;;;;;1.90;1.30;;;;;;;;;;5088254;28;20500;-72
2022/04/26 18:39:31;;;;;;;1.10;1.00;;;;;;;;;;5079216;28;20501;-72
2022/04/26 18:41:59;;;;;;;1.10;0.90;;;;;;;;;;5079770;28;20949;-72
2022/04/26 18:44:28;;;;;;;1.50;1.20;;;;;;;;;;5071820;28;20499;-72
2022/04/26 18:46:56;;;;;;;1.60;1.23;;;;;;;;;;5073957;28;20525;-72
2022/04/26 18:49:28;;;;;;;2.60;1.47;;;;;;;;;;5072747;28;20454;-73
2022/04/26 18:51:57;;;;;;;2.20;1.67;;;;;;;;;;5078908;28;20448;-72
2022/04/26 18:54:25;;;;;;;1.10;1.00;;;;;;;;;;5074678;28;20482;-73
2022/04/26 18:56:54;;;;;;;2.83;1.63;;;;;;;;;;5067193;28;20450;-72
2022/04/26 18:59:22;;;;;;;1.93;1.57;;;;;;;;;;5077483;28;20548;-72
2022/04/26 19:01:51;;;;;;;1.53;1.00;;;;;;;;;;5089618;28;20451;-72
2022/04/26 19:04:18;;;;;;;2.23;1.40;;;;;;;;;;5073226;28;20442;-72
2022/04/26 19:06:45;;;;;;;1.57;1.47;;;;;;;;;;5077306;28;20507;-72